Show Low, AZ

1:50 AM MST on October 01, 2016 (GMT -0700)
Show Low Municipal

Weather History for KSOW - February, 2013

Change the Weather History Date:

Friday, February 8, 2013

  Actual Average Record
Temperature  
Mean Temperature 40 °F -  
Max Temperature 48 °F 45 °F 64 °F (2000)
Min Temperature 32 °F 26 °F 3 °F (1989)
Degree Days  
Heating Degree Days 25    
Moisture  
Dew Point 18 °F    
Average Humidity 42    
Maximum Humidity 69    
Minimum Humidity 19    
Precipitation  
Precipitation 0.00 in - - ()
Sea Level Pressure  
Sea Level Pressure 29.86 in    
Wind  
Wind Speed 19 mph (South)    
Max Wind Speed 36 mph    
Max Gust Speed 46 mph    
Visibility 10 miles    
Events      
Averages and records for this station are not official NWS values.
T = Trace of Precipitation, MM = Missing Value Source: NWS Daily Summary

Daily Weather History Graph

Daily Weather History Graph

Search for Another Location

Airport or City:

Trip Planner

Search our weather history database for the weather conditions in past years. The results will help you decide how hot, cold, wet, or windy it might be!

Date:

Astronomy

Feb. 08, 2013 Rise Set
Actual Time 7:11 AM MST 5:57 PM MST
Civil Twilight 6:45 AM MST 6:23 PM MST
Nautical Twilight 6:15 AM MST 6:52 PM MST
Astronomical Twilight 5:46 AM MST 7:22 PM MST
Moon 5:40 AM MST (2/8) 4:35 PM MST (2/8)
Length of Visible Light 11h 37m
Length of Day
10h 45m
Waning Crescent, 3% of the Moon is Illuminated
Feb 8
Waning Crescent
Feb 10
New
Feb 17
First Quarter
Feb 25
Full
Mar 4
Last Quarter

Hourly Weather History & Observations

Time (MST) Temp. Windchill Dew Point Humidity Pressure Visibility Wind Dir Wind Speed Gust Speed Precip Events Conditions
12:15 AM 37.4 °F 28.5 °F 24.8 °F 60% 30.01 in 10.0 mi South 15.0 mph - N/A   Clear
12:35 AM 37.4 °F 28.2 °F 24.8 °F 60% 30.00 in 10.0 mi South 16.1 mph - N/A   Clear
12:55 AM 37.4 °F 28.9 °F 23.0 °F 56% 30.01 in 10.0 mi South 13.8 mph - N/A   Clear
1:15 AM 37.4 °F 30.8 °F 23.0 °F 56% 30.02 in 10.0 mi South 9.2 mph - N/A   Clear
1:35 AM 37.4 °F 30.8 °F 23.0 °F 56% 30.02 in 10.0 mi South 9.2 mph - N/A   Clear
1:55 AM 37.4 °F 30.8 °F 21.2 °F 52% 30.01 in 10.0 mi South 9.2 mph - N/A   Clear
2:15 AM 37.4 °F 31.4 °F 21.2 °F 52% 29.99 in 10.0 mi South 8.1 mph - N/A   Clear
2:35 AM 39.2 °F 33.0 °F 21.2 °F 49% 29.98 in 10.0 mi South 9.2 mph - N/A   Clear
2:55 AM 39.2 °F 32.0 °F 23.0 °F 52% 29.96 in 10.0 mi South 11.5 mph 17.3 mph N/A   Clear
3:15 AM 39.2 °F 31.2 °F 23.0 °F 52% 29.96 in 10.0 mi South 13.8 mph 18.4 mph N/A   Clear
3:35 AM 39.2 °F 30.8 °F 21.2 °F 49% 29.95 in 10.0 mi South 15.0 mph 23.0 mph N/A   Clear
3:55 AM 39.2 °F 30.5 °F 23.0 °F 52% 29.94 in 10.0 mi South 16.1 mph 23.0 mph N/A   Clear
4:15 AM 39.2 °F 30.5 °F 23.0 °F 52% 29.93 in 10.0 mi South 16.1 mph 29.9 mph N/A   Clear
4:35 AM 39.2 °F 29.0 °F 21.2 °F 49% 29.92 in 10.0 mi South 21.9 mph 29.9 mph N/A   Clear
4:55 AM 41.0 °F 32.5 °F 21.2 °F 45% 29.92 in 10.0 mi South 17.3 mph 35.7 mph N/A   Clear
5:15 AM 39.2 °F 29.3 °F 21.2 °F 49% 29.91 in 10.0 mi South 20.7 mph 27.6 mph N/A   Clear
5:35 AM 39.2 °F 28.3 °F 21.2 °F 49% 29.90 in 10.0 mi South 25.3 mph 32.2 mph N/A   Clear
5:55 AM 41.0 °F 30.9 °F 19.4 °F 42% 29.90 in 10.0 mi South 24.2 mph 35.7 mph N/A   Clear
6:15 AM 39.2 °F 28.3 °F 19.4 °F 45% 29.90 in 10.0 mi South 25.3 mph 34.5 mph N/A   Clear
6:35 AM 39.2 °F 28.7 °F 19.4 °F 45% 29.89 in 10.0 mi South 23.0 mph 35.7 mph N/A   Clear
6:55 AM 39.2 °F 27.8 °F 19.4 °F 45% 29.89 in 10.0 mi South 27.6 mph 33.4 mph N/A   Clear
7:15 AM 39.2 °F 28.5 °F 19.4 °F 45% 29.90 in 10.0 mi South 24.2 mph 33.4 mph N/A   Clear
7:35 AM 39.2 °F 28.7 °F 19.4 °F 45% 29.90 in 10.0 mi South 23.0 mph 29.9 mph N/A   Clear
7:55 AM 39.2 °F 29.8 °F 19.4 °F 45% 29.91 in 10.0 mi South 18.4 mph 29.9 mph N/A   Clear
8:15 AM 41.0 °F 31.1 °F 19.4 °F 42% 29.91 in 10.0 mi South 23.0 mph 29.9 mph N/A   Clear
8:35 AM 41.0 °F 31.6 °F 19.4 °F 42% 29.91 in 10.0 mi South 20.7 mph 33.4 mph N/A   Clear
8:55 AM 42.8 °F 33.5 °F 17.6 °F 36% 29.91 in 10.0 mi South 23.0 mph 33.4 mph N/A   Clear
9:15 AM 44.6 °F 34.9 °F 17.6 °F 34% 29.91 in 10.0 mi South 28.8 mph 36.8 mph N/A   Clear
9:35 AM 44.6 °F 34.9 °F 17.6 °F 34% 29.90 in 10.0 mi South 28.8 mph 38.0 mph N/A   Clear
9:55 AM 46.4 °F 36.7 °F 17.6 °F 32% 29.90 in 10.0 mi South 33.4 mph 44.9 mph N/A   Clear
10:15 AM 46.4 °F 36.7 °F 15.8 °F 29% 29.90 in 10.0 mi South 33.4 mph 41.4 mph N/A   Clear
10:35 AM 46.4 °F 37.0 °F 15.8 °F 29% 29.90 in 10.0 mi South 31.1 mph 46.0 mph N/A   Clear
10:55 AM 46.4 °F 37.2 °F 14.0 °F 27% 29.90 in 10.0 mi South 29.9 mph 44.9 mph N/A   Clear
11:15 AM 46.4 °F 36.9 °F 15.8 °F 29% 29.89 in 10.0 mi South 32.2 mph 39.1 mph N/A   Clear
11:35 AM 46.4 °F 36.4 °F 14.0 °F 27% 29.89 in 10.0 mi South 35.7 mph 44.9 mph N/A   Clear
11:55 AM 48.2 °F - 15.8 °F 27% 29.88 in 10.0 mi SSW 32.2 mph 39.1 mph N/A   Clear
12:15 PM 48.2 °F - 10.4 °F 22% 29.88 in 10.0 mi South 33.4 mph 41.4 mph N/A   Clear
12:35 PM 48.2 °F - 12.2 °F 24% 29.88 in 10.0 mi SSW 31.1 mph 43.7 mph N/A   Clear
12:55 PM 48.2 °F - 10.4 °F 22% 29.87 in 10.0 mi South 32.2 mph 41.4 mph N/A   Clear
1:15 PM 48.2 °F - 10.4 °F 22% 29.86 in 10.0 mi SSW 25.3 mph 41.4 mph N/A   Clear
1:35 PM 48.2 °F - 6.8 °F 19% 29.85 in 10.0 mi SSW 31.1 mph 41.4 mph N/A   Clear
1:55 PM 48.2 °F - 8.6 °F 20% 29.84 in 10.0 mi SSW 26.5 mph 36.8 mph N/A   Clear
2:15 PM 48.2 °F - 8.6 °F 20% 29.84 in 10.0 mi SSW 27.6 mph 39.1 mph N/A   Clear
2:35 PM 48.2 °F - 6.8 °F 19% 29.83 in 10.0 mi SSW 26.5 mph 38.0 mph N/A   Clear
2:55 PM 48.2 °F - 8.6 °F 20% 29.82 in 10.0 mi SSW 32.2 mph 44.9 mph N/A   Clear
3:15 PM 48.2 °F - 8.6 °F 20% 29.82 in 10.0 mi SSW 26.5 mph 41.4 mph N/A   Clear
3:35 PM 48.2 °F - 12.2 °F 24% 29.81 in 10.0 mi SSW 24.2 mph 36.8 mph N/A   Clear
3:55 PM 46.4 °F 38.1 °F 12.2 °F 25% 29.81 in 10.0 mi South 24.2 mph 39.1 mph N/A   Clear
4:15 PM 46.4 °F 39.0 °F 14.0 °F 27% 29.80 in 10.0 mi SSW 19.6 mph 33.4 mph N/A   Clear
4:35 PM 46.4 °F 37.0 °F 14.0 °F 27% 29.80 in 10.0 mi South 31.1 mph 40.3 mph N/A   Partly Cloudy
4:55 PM 44.6 °F 35.9 °F 14.0 °F 29% 29.79 in 10.0 mi South 23.0 mph 34.5 mph N/A   Clear
5:15 PM 44.6 °F 35.5 °F 15.8 °F 31% 29.79 in 10.0 mi South 25.3 mph 34.5 mph N/A   Clear
5:35 PM 42.8 °F 33.3 °F 15.8 °F 34% 29.79 in 10.0 mi SSW 24.2 mph 32.2 mph N/A   Clear
5:55 PM 41.0 °F 31.4 °F 17.6 °F 39% 29.79 in 10.0 mi SSW 21.9 mph 29.9 mph N/A   Clear
6:15 PM 41.0 °F 33.1 °F 17.6 °F 39% 29.79 in 10.0 mi SSW 15.0 mph 28.8 mph N/A   Clear
6:35 PM 39.2 °F 30.2 °F 19.4 °F 45% 29.79 in 10.0 mi SSW 17.3 mph 24.2 mph N/A   Clear
6:55 PM 39.2 °F 30.2 °F 17.6 °F 42% 29.78 in 10.0 mi SSW 17.3 mph 20.7 mph N/A   Clear
7:15 PM 37.4 °F 28.5 °F 19.4 °F 48% 29.78 in 10.0 mi SSW 15.0 mph 21.9 mph N/A   Clear
7:35 PM 37.4 °F 28.5 °F 19.4 °F 48% 29.78 in 10.0 mi SSW 15.0 mph 20.7 mph N/A   Clear
7:55 PM 35.6 °F 27.1 °F 19.4 °F 52% 29.78 in 10.0 mi South 12.7 mph - N/A   Clear
8:15 PM 35.6 °F 26.2 °F 19.4 °F 52% 29.78 in 10.0 mi South 15.0 mph - N/A   Clear
8:35 PM 35.6 °F 27.1 °F 21.2 °F 56% 29.78 in 10.0 mi South 12.7 mph - N/A   Clear
8:55 PM 35.6 °F 26.6 °F 21.2 °F 56% 29.77 in 10.0 mi South 13.8 mph - N/A   Clear
9:15 PM 33.8 °F 24.8 °F 21.2 °F 60% 29.76 in 10.0 mi South 12.7 mph - N/A   Clear
9:35 PM 32.0 °F 22.5 °F 21.2 °F 64% 29.76 in 10.0 mi South 12.7 mph - N/A   Clear
9:55 PM 32.0 °F 22.1 °F 21.2 °F 64% 29.76 in 10.0 mi South 13.8 mph - N/A   Clear
10:15 PM 32.0 °F 22.1 °F 21.2 °F 64% 29.76 in 10.0 mi South 13.8 mph - N/A   Clear
10:35 PM 32.0 °F 22.1 °F 21.2 °F 64% 29.76 in 10.0 mi South 13.8 mph - N/A   Clear
10:55 PM 32.0 °F 23.0 °F 21.2 °F 64% 29.76 in 10.0 mi South 11.5 mph - N/A   Clear
11:15 PM 32.0 °F 23.0 °F 21.2 °F 64% 29.75 in 10.0 mi South 11.5 mph - N/A   Partly Cloudy
11:35 PM 32.0 °F 22.5 °F 23.0 °F 69% 29.75 in 10.0 mi South 12.7 mph - N/A   Scattered Clouds
11:55 PM 33.8 °F 22.2 °F 23.0 °F 65% 29.74 in 10.0 mi SSW 20.7 mph 24.2 mph N/A   Mostly Cloudy